Current Weather

Joliet Regional Airport

Joliet Regional Airport, Illinois (KJOT)

Report from: Monday, May 23, 2022 3:35 AM CDT
Current time: Monday, May 23, 2022 4:09 AM CDT

Nearby weather
Weather history
Weather forecast

Temperature5.1°C (41.2°F)
Dew point3.8°C (38.8°F)
Winds Calm
Visibility10 mi. (16.1 km)
Clouds Sky clear
Altimeter30.36 in.Hg (1028 mB)
Relative humidity91 %
Density altitude-1,582 ft. (-482 m)
Remarks Fully automated report
Automated weather observing station with precipitation discriminator
Flight conditions Visual Meteorological Conditions
Raw dataKJOT 230835Z AUTO 00000KT 10SM CLR 05/04 A3036 RMK AO2 T00510038
An error has occurred. This application may no longer respond until reloaded. Reload 🗙